Ride Results

Tumut Endurance (07-03-2020)
Ride distance: 80.0 km

Outcomes - Tumut Endurance (07-03-2020)
Division No. of Entries Retired / DNE Completed Withdrawn Ineligible V/O Percentage Completed
HW 5 - 4 - - 1 80.00%
MW 19 - 14 - - 5 73.68%
LW 14 - 12 1 - 1 85.71%
JN 9 - 7 - - 2 77.78%
Totals 47 - 37 1 - 9 78.72%
Results - Tumut Endurance (07-03-2020)
No. Rider Horse Place Time Leg Speeds Total
Km/Hr
H/R bpm
Heavyweight
38 Allan Caslick A'Landell Jester 1 (BC) 7:06:15 10.7, 11.8 11.26 29, 40, 39 (Avg:39)
5 Stuart Lymbery Happy Feet 2 9:28:27 8.7, 8.1 8.44 37, 46, 49 (Avg:47)
27 Heather Nagle Aloha Dash 3 9:47:17 8.0, 8.2 8.17 44, 46, 50 (Avg:48)
18 Sarah Pollard-Williams Kintamani Silver Fox 4 10:09:51 7.9, 7.7 7.87 39, 40, 48 (Avg:44)
48 Marty Moran Coco Chanel Lame L2 0:00:00 10.7, 10.6 - 34, 47, 52 (Avg:49)
Middleweight
6 Ellen Vine Alzarah 1 (BC) 6:25:44 12.6, 12.2 12.44 35, 40, 43 (Avg:41)
19 Naomi McGaffin Kelkette Park Faris 2 7:12:27 10.7, 11.5 11.10 34, 41, 41 (Avg:41)
32 Ian Curtis Marat MA 3 7:19:09 11.5, 10.3 10.93 37, 37, 49 (Avg:43)
34 Simone Murphy Blake's Heaven Adventuress 4 7:22:06 11.5, 10.2 10.86 35, 46, 47 (Avg:46)
13 Amanda Kettlewell Oso Evita 5 7:27:52 10.3, 11.1 10.72 39, 45, 52 (Avg:48)
11 Tamara Gibson Oso Zara 6 7:37:09 9.3, 12.0 10.50 42, 55, 57 (Avg:56)
12 Morgan Stapley Oso Meeka 6 7:37:09 9.3, 12.0 10.50 38, 49, 33 (Avg:41)
52 Sarah Parker Majic Richardo 8 7:48:11 9.7, 10.8 10.25 44, 50, 43 (Avg:46)
20 Kristie Taprell Castlebar Tracer 9 8:04:14 10.0, 9.8 9.91 50, 49, 50 (Avg:49)
4 Anne Lymbery Garonne Park Kapten 10 9:28:32 8.7, 8.1 8.44 38, 35, 42 (Avg:38)
47 Rachel Benad Hirstglen Probably 11 9:28:46 9.2, 7.7 8.44 38, 40, 42 (Avg:41)
46 Hannah Mitchell Sahara Park Miss Rubicon 12 9:40:06 7.8, 8.7 8.27 37, 47, 49 (Avg:48)
29 Leisa Courtman Aloha Sparks 13 9:47:07 8.0, 8.2 8.18 38, 45, 45 (Avg:45)
28 Tracey Morley Ejen Park Summer Tango 14 9:47:15 8.0, 8.2 8.17 30, 50, 49 (Avg:49)
41 Tracy John Berwick Red Princess Lame L2 0:00:00 10.3, 75.3 - 31, 51, 41 (Avg:46)
15 Kylie Jonkers Oso Silver Solaman Lame L2 0:00:00 9.3, 12.0 - 34, 43, 47 (Avg:45)
3 Shanna Milne Yaraandoo Myee-Jarrah Heart Rate L2 0:00:00 9.5, 9.2 - 35, 46 (Avg:46)
49 Bev Turner Dane Heart Rate L2 0:00:00 10.6, 10.6 - 33, 47, 65 (Avg:56)
36 Chris Morley Rocky Creek Tiger Lilly Lame L1 0:00:00 7.7 - 42, 50 (Avg:50)
Lightweight
17 Julie Hooper A'Landell Enigma 1 7:06:12 11.3, 11.1 11.26 38, 44, 49 (Avg:46)
35 Fia Hasko-Stewart Blake's Heaven Hiraani 2 7:22:00 11.5, 10.2 10.86 31, 40, 44 (Avg:42)
51 Catherine Bailey Razorback Annatole 3 (BC) 7:22:12 10.3, 11.4 10.85 30, 39, 40 (Avg:39)
10 Victoria Bice Oso Ngaire 4 7:27:48 10.3, 11.1 10.72 40, 48, 60 (Avg:54)
9 Ali Godfrey Jake 5 8:05:19 9.5, 10.2 9.89 39, 46, 51 (Avg:48)
2 Simon Bain Akifa Farras Ice 6 8:27:16 9.9, 8.9 9.46 36, 51, 52 (Avg:51)
39 Faith Robinson Sassy Grace 7 8:27:21 10.5, 8.6 9.46 38, 47, 58 (Avg:52)
1 Nichola Mepham Meracious Mahrousseh 8 8:27:27 10.1, 8.8 9.46 34, 40, 45 (Avg:42)
25 Kim Noble Springridge Elite 9 9:07:21 8.7, 8.7 8.77 39, 50, 57 (Avg:53)
45 Louise Stevens Allegation 10 9:28:22 9.2, 7.7 8.45 36, 45, 48 (Avg:46)
40 Sorsha Stuart-Rokvic Coolinda Park Winston 11 9:28:37 9.2, 7.7 8.44 43, 46, 50 (Avg:48)
37 Leanne Holz Rocky Creek MR. T 12 9:40:04 7.7, 8.8 8.27 31, 39, 48 (Avg:43)
7 Roz Edmunds Everon Park Apollo Heart Rate L2 0:00:00 7.8, 7.8 - 31, 39, 64 (Avg:51)
42 Jodi Dewick Wickwood Dark Rose W/D on track L1 (Rep) 0:00:00 - - 33, 43, 54 (Avg:48)
Junior
16 Madison Hooper Night Fire 1 7:06:13 11.3, 11.1 11.26 30, 36, 44 (Avg:40)
43 Kaitlyn Mercieca Milandi Molly 2 7:35:07 10.9, 10.2 10.55 41, 44, 42 (Avg:43)
50 Tahnaya Mercieca Henley Farm Fursan 3 (BC) 7:35:10 10.9, 10.2 10.55 31, 32, 48 (Avg:40)
14 Poppy Kettlewell Al-Marah Red Cardinal 4 7:37:06 10.3, 10.6 10.50 32, 52, 48 (Avg:50)
21 Emma Cole Aloha Sweet Brier 5 7:48:00 10.3, 10.1 10.26 39, 50, 48 (Avg:49)
24 Alison Noble Sbara Teddy 6 9:07:29 8.7, 8.7 8.77 34, 46, 48 (Avg:47)
26 Jayme Cooper Minton East Willows Gift 7 9:28:12 7.8, 9.0 8.45 39, 47, 52 (Avg:49)
31 Tegan Ashby Lentara Park Heather Lame L1 0:00:00 10.0 - 42, 47 (Avg:47)
33 Matilda Brady Peanut Lame L1 0:00:00 7.7 - 42, 39 (Avg:39)